Time;durP1;ratioP1;P1;durP2;ratioP2;P2;SDS_P1;SDS_P2;PMS_P1;PMS_P2;Temp;Humidity;BMP_temperature;BMP_pressure;BME280_temperature;BME280_humidity;BME280_pressure;Samples;Min_cycle;Max_cycle;Signal;HPM_P1;HPM_P2
2022/04/13 00:02:01;;;;;;;4.53;1.90;;;12.10;99.90;;;;;;5053062;28;20249;-40
2022/04/13 00:04:26;;;;;;;3.03;1.97;;;12.10;99.90;;;;;;5052983;28;20254;-40
2022/04/13 00:06:52;;;;;;;5.33;2.07;;;12.00;99.90;;;;;;5053194;28;20321;-39
2022/04/13 00:09:18;;;;;;;5.93;2.23;;;12.00;99.90;;;;;;5052986;28;20180;-40
2022/04/13 00:11:43;;;;;;;5.03;2.50;;;12.00;99.90;;;;;;5053028;28;20652;-41
2022/04/13 00:14:09;;;;;;;5.67;2.20;;;12.00;99.90;;;;;;5052904;28;20263;-39
2022/04/13 00:16:35;;;;;;;4.33;2.20;;;12.00;99.90;;;;;;5053323;28;20207;-43
2022/04/13 00:19:00;;;;;;;4.13;2.20;;;11.90;99.90;;;;;;5053097;28;20711;-43
2022/04/13 00:21:26;;;;;;;4.53;2.30;;;12.00;99.90;;;;;;5052993;28;20183;-44
2022/04/13 00:23:51;;;;;;;5.03;2.20;;;12.00;99.90;;;;;;5053086;28;20688;-44
2022/04/13 00:26:17;;;;;;;4.70;2.00;;;11.90;99.90;;;;;;5053242;28;20191;-43
2022/04/13 00:28:43;;;;;;;11.40;2.40;;;11.90;99.90;;;;;;5054756;28;20634;-45
2022/04/13 00:31:08;;;;;;;3.73;2.37;;;11.90;99.90;;;;;;5055777;28;20291;-45
2022/04/13 00:33:34;;;;;;;6.77;2.83;;;12.00;99.90;;;;;;5056469;28;20176;-46
2022/04/13 00:35:59;;;;;;;4.23;2.27;;;11.90;99.90;;;;;;5056088;28;20206;-45
2022/04/13 00:38:25;;;;;;;10.40;2.90;;;11.90;99.90;;;;;;5056269;28;20179;-44
2022/04/13 00:40:51;;;;;;;3.13;1.80;;;11.90;99.90;;;;;;5056309;28;20218;-45
2022/04/13 00:43:17;;;;;;;2.70;2.17;;;11.90;99.90;;;;;;5055583;28;20215;-47
2022/04/13 00:45:46;;;;;;;9.33;2.30;;;11.90;99.90;;;;;;5055756;28;20204;-46
2022/04/13 00:48:35;;;;;;;4.20;2.23;;;12.00;99.90;;;;;;5055475;28;20195;-47
2022/04/13 00:51:00;;;;;;;5.00;2.23;;;11.90;99.90;;;;;;5055400;28;20161;-45
2022/04/13 00:53:29;;;;;;;5.07;2.30;;;11.90;99.90;;;;;;5055479;28;20646;-45
2022/04/13 00:55:56;;;;;;;3.60;2.30;;;11.90;99.90;;;;;;5055172;28;20196;-46
2022/04/13 00:58:24;;;;;;;3.47;2.40;;;11.90;99.90;;;;;;5054979;28;20172;-45
2022/04/13 01:00:51;;;;;;;6.57;2.43;;;11.90;99.90;;;;;;5054768;28;20176;-45
2022/04/13 01:03:22;;;;;;;3.13;1.97;;;11.90;99.90;;;;;;5054657;28;20169;-45
2022/04/13 01:05:49;;;;;;;5.23;2.00;;;11.90;99.90;;;;;;5057384;28;20208;-43
2022/04/13 01:08:17;;;;;;;4.50;2.10;;;11.80;99.90;;;;;;5058311;28;20168;-43
2022/04/13 01:10:44;;;;;;;7.93;2.20;;;11.90;99.90;;;;;;5058581;28;20169;-45
2022/04/13 01:13:12;;;;;;;5.93;2.40;;;11.80;99.90;;;;;;5058173;28;20176;-44
2022/04/13 01:15:38;;;;;;;4.13;2.53;;;11.80;99.90;;;;;;5057962;28;20184;-44
2022/04/13 01:18:04;;;;;;;8.07;2.17;;;11.70;99.90;;;;;;5057813;28;20547;-46
2022/04/13 01:20:30;;;;;;;5.27;1.90;;;11.70;99.90;;;;;;5058242;28;20214;-45
2022/04/13 01:22:56;;;;;;;6.33;2.23;;;11.70;99.90;;;;;;5057762;28;20180;-45
2022/04/13 01:25:21;;;;;;;6.20;1.93;;;11.60;99.90;;;;;;5058274;28;20529;-46
2022/04/13 01:27:47;;;;;;;4.13;1.90;;;11.60;99.90;;;;;;5057918;28;20203;-45
2022/04/13 01:30:13;;;;;;;6.63;2.07;;;11.50;99.90;;;;;;5057618;28;20226;-46
2022/04/13 01:32:39;;;;;;;4.53;1.90;;;11.50;99.90;;;;;;5057879;28;20518;-45
2022/04/13 01:35:06;;;;;;;4.30;2.03;;;11.40;99.90;;;;;;5057548;28;20180;-45
2022/04/13 01:37:32;;;;;;;7.33;2.40;;;11.40;99.90;;;;;;5059052;28;20196;-45
2022/04/13 01:39:58;;;;;;;2.97;1.80;;;11.30;99.90;;;;;;5059370;28;20193;-45
2022/04/13 01:42:23;;;;;;;4.43;1.70;;;11.30;99.90;;;;;;5058737;28;20241;-44
2022/04/13 01:44:49;;;;;;;3.73;1.90;;;11.20;99.90;;;;;;5058631;28;20192;-45
2022/04/13 01:47:15;;;;;;;3.47;1.90;;;11.20;99.90;;;;;;5058391;28;20269;-43
2022/04/13 01:49:41;;;;;;;6.30;1.90;;;11.10;99.90;;;;;;5058446;28;20186;-46
2022/04/13 01:52:08;;;;;;;4.80;1.77;;;11.10;99.90;;;;;;5057279;28;20233;-46
2022/04/13 01:54:34;;;;;;;3.40;1.50;;;11.00;99.90;;;;;;5059165;28;20247;-46
2022/04/13 01:57:00;;;;;;;6.23;2.10;;;11.00;99.90;;;;;;5058535;28;20227;-44
2022/04/13 01:59:26;;;;;;;9.03;1.87;;;11.00;99.90;;;;;;5057675;28;20199;-46
2022/04/13 02:01:52;;;;;;;3.17;1.87;;;11.00;99.90;;;;;;5060009;28;20265;-44
2022/04/13 02:04:21;;;;;;;5.73;1.80;;;11.00;99.90;;;;;;5059640;28;20199;-46
2022/04/13 02:06:48;;;;;;;4.50;2.53;;;11.00;99.90;;;;;;5058458;28;20562;-43
2022/04/13 02:09:14;;;;;;;4.03;2.10;;;11.00;99.90;;;;;;5058516;28;20184;-44
2022/04/13 02:11:40;;;;;;;5.13;2.20;;;10.90;99.90;;;;;;5057545;28;20640;-45
2022/04/13 02:14:07;;;;;;;7.67;2.30;;;10.90;99.90;;;;;;5058709;28;20271;-46
2022/04/13 02:16:33;;;;;;;5.83;2.20;;;11.00;99.90;;;;;;5057940;28;20573;-45
2022/04/13 02:18:58;;;;;;;3.93;2.30;;;11.00;99.90;;;;;;5059019;28;20262;-47
2022/04/13 02:21:24;;;;;;;4.37;2.03;;;10.90;99.90;;;;;;5058663;28;20214;-46
2022/04/13 02:23:49;;;;;;;4.30;2.00;;;11.00;99.90;;;;;;5059032;28;20202;-45
2022/04/13 02:26:17;;;;;;;6.33;2.20;;;10.90;99.90;;;;;;5058818;28;20536;-45
2022/04/13 02:28:42;;;;;;;4.03;2.17;;;11.00;99.90;;;;;;5058919;28;20191;-46
2022/04/13 02:31:08;;;;;;;5.17;2.33;;;10.90;99.90;;;;;;5058442;28;20195;-45
2022/04/13 02:33:34;;;;;;;4.20;1.90;;;10.90;99.90;;;;;;5058958;28;20175;-45
2022/04/13 02:35:59;;;;;;;4.93;2.10;;;11.00;99.90;;;;;;5059290;28;20233;-46
2022/04/13 02:38:25;;;;;;;6.50;2.50;;;10.90;99.90;;;;;;5059199;28;20718;-46
2022/04/13 02:40:52;;;;;;;4.03;2.03;;;10.90;99.90;;;;;;5058114;28;20175;-45
2022/04/13 02:43:18;;;;;;;5.20;1.97;;;10.90;99.90;;;;;;5058561;28;20264;-47
2022/04/13 02:45:43;;;;;;;4.40;2.40;;;10.90;99.90;;;;;;5059731;28;20700;-43
2022/04/13 02:48:09;;;;;;;4.00;2.00;;;10.90;99.90;;;;;;5060872;28;20187;-47
2022/04/13 02:50:35;;;;;;;7.33;2.27;;;10.90;99.90;;;;;;5060002;28;20183;-44
2022/04/13 02:53:00;;;;;;;5.37;2.67;;;10.90;99.90;;;;;;5060642;28;20183;-45
2022/04/13 02:55:26;;;;;;;5.63;2.47;;;10.90;99.90;;;;;;5060286;28;20691;-45
2022/04/13 02:57:52;;;;;;;4.27;2.20;;;11.00;99.90;;;;;;5060726;28;20184;-45
2022/04/13 03:00:17;;;;;;;9.20;3.20;;;10.90;99.90;;;;;;5060582;28;20732;-45
2022/04/13 03:02:44;;;;;;;6.47;3.00;;;10.90;99.90;;;;;;5060290;28;20269;-46
2022/04/13 03:05:10;;;;;;;8.33;3.27;;;10.90;99.90;;;;;;5060167;28;20199;-46
2022/04/13 03:07:36;;;;;;;5.63;3.27;;;10.90;99.90;;;;;;5060147;28;20205;-45
2022/04/13 03:10:03;;;;;;;4.67;3.10;;;10.90;99.90;;;;;;5061271;28;20183;-45
2022/04/13 03:12:29;;;;;;;4.73;3.03;;;10.90;99.90;;;;;;5060765;28;20202;-45
2022/04/13 03:14:54;;;;;;;11.73;3.53;;;10.90;99.90;;;;;;5060022;28;20191;-45
2022/04/13 03:17:20;;;;;;;7.73;3.23;;;12.50;99.90;;;;;;5059755;28;20269;-45
2022/04/13 03:19:45;;;;;;;10.13;3.57;;;11.00;99.90;;;;;;5060517;28;20183;-45
2022/04/13 03:22:11;;;;;;;8.03;3.37;;;11.00;99.90;;;;;;5059987;28;20192;-44
2022/04/13 03:24:37;;;;;;;7.23;3.00;;;11.00;99.90;;;;;;5058738;28;20224;-45
2022/04/13 03:27:03;;;;;;;6.63;3.30;;;11.00;99.90;;;;;;5060277;28;20210;-45
2022/04/13 03:29:28;;;;;;;7.07;3.10;;;11.00;99.90;;;;;;5060042;28;20187;-46
2022/04/13 03:31:54;;;;;;;9.90;3.27;;;11.00;99.90;;;;;;5059872;28;20191;-46
2022/04/13 03:34:22;;;;;;;7.93;3.00;;;11.00;99.90;;;;;;5060324;28;20569;-46
2022/04/13 03:36:48;;;;;;;6.77;3.03;;;11.00;99.90;;;;;;5059761;28;20199;-44
2022/04/13 03:39:14;;;;;;;4.73;2.73;;;11.00;99.90;;;;;;5060205;28;20179;-44
2022/04/13 03:41:40;;;;;;;6.83;3.03;;;11.00;99.90;;;;;;5060653;28;20241;-44
2022/04/13 03:44:06;;;;;;;6.87;2.83;;;11.00;99.90;;;;;;5059716;28;20234;-46
2022/04/13 03:46:32;;;;;;;8.73;2.80;;;11.00;99.90;;;;;;5059452;28;20702;-43
2022/04/13 03:48:58;;;;;;;8.47;2.90;;;11.00;99.90;;;;;;5058865;28;20175;-46
2022/04/13 03:51:24;;;;;;;10.00;3.57;;;11.00;99.90;;;;;;5060340;28;20176;-46
2022/04/13 03:53:50;;;;;;;7.00;2.83;;;11.10;99.90;;;;;;5060332;28;20259;-46
2022/04/13 03:56:15;;;;;;;7.50;3.30;;;11.10;99.90;;;;;;5060311;28;20245;-46
2022/04/13 03:58:41;;;;;;;9.13;2.80;;;11.10;99.90;;;;;;5059450;28;20197;-46
2022/04/13 04:01:10;;;;;;;3.67;2.53;;;11.10;99.90;;;;;;5061014;28;20163;-44
2022/04/13 04:03:37;;;;;;;6.73;2.90;;;11.10;99.90;;;;;;5061243;28;20186;-47
2022/04/13 04:06:03;;;;;;;5.93;2.90;;;11.10;99.90;;;;;;5060943;28;20587;-46
2022/04/13 04:08:32;;;;;;;10.90;3.03;;;11.00;99.90;;;;;;5060435;28;20184;-46
2022/04/13 04:10:58;;;;;;;6.73;3.17;;;11.10;99.90;;;;;;5060625;28;20180;-45
2022/04/13 04:13:24;;;;;;;8.10;2.93;;;11.10;99.90;;;;;;5060900;28;20192;-46
2022/04/13 04:15:49;;;;;;;7.00;2.60;;;11.00;99.90;;;;;;5059700;28;20301;-45
2022/04/13 04:18:15;;;;;;;6.53;3.10;;;11.00;99.90;;;;;;5060956;28;20607;-44
2022/04/13 04:20:41;;;;;;;7.60;3.10;;;11.00;99.90;;;;;;5060834;28;20186;-46
2022/04/13 04:23:06;;;;;;;4.77;3.17;;;10.90;99.90;;;;;;5061060;28;20190;-45
2022/04/13 04:25:32;;;;;;;6.57;3.03;;;10.90;99.90;;;;;;5061457;28;20198;-45
2022/04/13 04:27:58;;;;;;;6.87;2.83;;;10.90;99.90;;;;;;5061633;28;20258;-45
2022/04/13 04:30:23;;;;;;;5.70;2.83;;;10.80;99.90;;;;;;5058921;28;20178;-45
2022/04/13 04:32:49;;;;;;;5.80;2.63;;;10.80;99.90;;;;;;5059662;28;20526;-45
2022/04/13 04:35:14;;;;;;;7.70;3.60;;;10.80;99.90;;;;;;5058807;28;20186;-45
2022/04/13 04:37:40;;;;;;;6.33;3.07;;;10.80;99.90;;;;;;5058412;28;20234;-45
2022/04/13 04:40:06;;;;;;;9.93;3.40;;;10.70;99.90;;;;;;5061130;28;20186;-45
2022/04/13 04:42:43;;;;;;;7.30;2.90;;;10.80;99.90;;;;;;5064416;28;20186;-46
2022/04/13 04:45:08;;;;;;;7.77;3.10;;;10.70;99.90;;;;;;5111159;22;20590;-40
2022/04/13 04:47:34;;;;;;;5.20;2.63;;;10.70;99.90;;;;;;5117094;28;20201;-40
2022/04/13 04:50:00;;;;;;;5.33;3.10;;;10.60;99.90;;;;;;5117203;28;20169;-39
2022/04/13 04:52:26;;;;;;;7.57;3.10;;;10.60;99.90;;;;;;5117178;28;20176;-41
2022/04/13 04:54:51;;;;;;;6.10;2.87;;;10.60;99.90;;;;;;5117413;28;20181;-40
2022/04/13 04:57:17;;;;;;;5.00;2.70;;;10.60;99.90;;;;;;5117837;28;20203;-40
2022/04/13 04:59:43;;;;;;;5.60;2.90;;;10.50;99.90;;;;;;5115951;28;20638;-40
2022/04/13 05:02:08;;;;;;;7.43;2.87;;;10.50;99.90;;;;;;5117209;28;20177;-40
2022/04/13 05:04:34;;;;;;;5.77;2.87;;;10.50;99.90;;;;;;5117338;28;20212;-40
2022/04/13 05:06:59;;;;;;;5.50;3.00;;;10.40;99.90;;;;;;5117190;28;20206;-42
2022/04/13 05:09:25;;;;;;;11.63;3.70;;;10.40;99.90;;;;;;5116898;28;20180;-41
2022/04/13 05:11:51;;;;;;;7.73;4.40;;;10.40;99.90;;;;;;5115950;28;20267;-41
2022/04/13 05:14:18;;;;;;;10.10;4.43;;;10.40;99.90;;;;;;5117276;28;20191;-41
2022/04/13 05:16:45;;;;;;;12.90;4.47;;;10.40;99.90;;;;;;5117065;28;20239;-41
2022/04/13 05:19:10;;;;;;;10.47;4.20;;;10.50;99.90;;;;;;5117004;28;20259;-42
2022/04/13 05:21:36;;;;;;;10.83;4.10;;;10.50;99.90;;;;;;5116997;28;20319;-42
2022/04/13 05:24:01;;;;;;;15.83;3.70;;;10.60;99.90;;;;;;5116420;28;20561;-41
2022/04/13 05:26:27;;;;;;;9.53;4.57;;;10.60;99.90;;;;;;5117428;28;20208;-45
2022/04/13 05:28:52;;;;;;;10.67;4.13;;;10.60;99.90;;;;;;5118214;28;20171;-48
2022/04/13 05:31:18;;;;;;;8.97;4.10;;;10.60;99.90;;;;;;5119033;28;20196;-48
2022/04/13 05:33:44;;;;;;;10.23;4.33;;;10.60;99.90;;;;;;5115336;28;20181;-44
2022/04/13 05:36:09;;;;;;;10.90;4.30;;;10.60;99.90;;;;;;5117985;28;20201;-47
2022/04/13 05:38:36;;;;;;;10.23;4.30;;;10.50;99.90;;;;;;5116584;28;20209;-40
2022/04/13 05:41:01;;;;;;;9.27;4.67;;;10.50;99.90;;;;;;5117854;28;20180;-46
2022/04/13 05:43:30;;;;;;;10.33;4.90;;;10.50;99.90;;;;;;5116651;28;20181;-40
2022/04/13 05:45:57;;;;;;;11.67;4.93;;;10.50;99.90;;;;;;5116026;28;20213;-39
2022/04/13 05:48:22;;;;;;;14.03;5.20;;;10.60;99.90;;;;;;5116516;28;20172;-45
2022/04/13 05:50:48;;;;;;;10.57;4.43;;;10.60;99.90;;;;;;5117557;28;20636;-47
2022/04/13 05:53:14;;;;;;;11.67;4.87;;;10.70;99.90;;;;;;5119167;28;20177;-46
2022/04/13 05:55:39;;;;;;;9.57;4.80;;;10.70;99.90;;;;;;5119284;28;20255;-45
2022/04/13 05:58:05;;;;;;;17.03;5.93;;;10.80;99.90;;;;;;5117575;28;20182;-44
2022/04/13 06:00:30;;;;;;;13.50;4.73;;;10.80;99.90;;;;;;5115747;28;20182;-43
2022/04/13 06:02:56;;;;;;;12.77;5.33;;;10.90;99.90;;;;;;5116113;28;20184;-42
2022/04/13 06:05:24;;;;;;;11.40;5.00;;;11.00;99.90;;;;;;5115852;28;20202;-43
2022/04/13 06:07:50;;;;;;;11.60;4.77;;;11.10;99.90;;;;;;5115923;28;20212;-44
2022/04/13 06:10:17;;;;;;;14.47;5.80;;;11.10;99.90;;;;;;5115611;28;20177;-45
2022/04/13 06:12:43;;;;;;;11.53;5.40;;;11.30;99.90;;;;;;5115779;28;20608;-43
2022/04/13 06:15:12;;;;;;;12.63;4.97;;;11.40;99.90;;;;;;5115974;28;20202;-43
2022/04/13 06:17:38;;;;;;;13.87;5.60;;;11.40;99.90;;;;;;5115414;28;20258;-44
2022/04/13 06:20:05;;;;;;;12.97;5.37;;;11.60;99.90;;;;;;5115697;28;20189;-43
2022/04/13 06:22:32;;;;;;;19.03;6.17;;;11.70;99.90;;;;;;5115997;27;20175;-43
2022/04/13 06:25:00;;;;;;;15.60;6.27;;;11.80;99.90;;;;;;5115393;28;20204;-43
2022/04/13 06:27:26;;;;;;;10.07;5.67;;;11.90;99.90;;;;;;5115266;27;20279;-44
2022/04/13 06:29:53;;;;;;;15.60;5.80;;;12.00;99.90;;;;;;5115190;28;20208;-43
2022/04/13 06:32:18;;;;;;;12.63;6.07;;;12.10;99.90;;;;;;5115150;28;20201;-44
2022/04/13 06:34:44;;;;;;;16.87;6.13;;;12.20;99.90;;;;;;5115881;28;20173;-45
2022/04/13 06:37:09;;;;;;;11.27;5.77;;;12.30;99.90;;;;;;5115241;28;20243;-44
2022/04/13 06:39:35;;;;;;;13.37;5.53;;;12.40;99.90;;;;;;5115047;28;20177;-45
2022/04/13 06:42:01;;;;;;;18.07;6.57;;;12.50;99.90;;;;;;5115542;28;20273;-43
2022/04/13 06:44:27;;;;;;;15.20;5.93;;;12.60;99.90;;;;;;5114931;28;20789;-45
2022/04/13 06:46:53;;;;;;;8.77;5.50;;;12.70;99.90;;;;;;5114863;28;20190;-44
2022/04/13 06:49:19;;;;;;;9.33;5.53;;;12.80;99.90;;;;;;5113704;28;20173;-42
2022/04/13 06:51:44;;;;;;;15.53;6.97;;;13.00;99.90;;;;;;5115050;28;20184;-43
2022/04/13 06:54:10;;;;;;;16.13;6.67;;;13.10;99.90;;;;;;5114699;27;20188;-43
2022/04/13 06:56:39;;;;;;;14.70;7.63;;;13.20;99.90;;;;;;5114923;28;20197;-45
2022/04/13 06:59:05;;;;;;;12.90;6.63;;;13.20;99.90;;;;;;5114684;28;20540;-44
2022/04/13 07:01:30;;;;;;;14.03;6.40;;;13.30;99.90;;;;;;5114836;28;20169;-44
2022/04/13 07:03:56;;;;;;;13.53;6.70;;;13.40;99.90;;;;;;5114209;28;20205;-43
2022/04/13 07:06:22;;;;;;;14.13;6.80;;;13.50;99.90;;;;;;5115132;28;20190;-43
2022/04/13 07:08:47;;;;;;;15.93;8.03;;;13.60;99.90;;;;;;5117951;28;20181;-45
2022/04/13 07:11:13;;;;;;;15.10;7.60;;;13.70;99.90;;;;;;5115592;28;20178;-46
2022/04/13 07:13:38;;;;;;;16.17;8.27;;;13.70;99.90;;;;;;5118410;28;20631;-47
2022/04/13 07:16:04;;;;;;;18.60;8.23;;;13.90;99.90;;;;;;5117816;28;20190;-47
2022/04/13 07:18:30;;;;;;;21.07;9.27;;;14.00;99.90;;;;;;5116650;28;20176;-46
2022/04/13 07:20:55;;;;;;;20.93;8.90;;;14.10;99.90;;;;;;5116613;28;20209;-47
2022/04/13 07:23:21;;;;;;;15.13;8.60;;;14.30;99.90;;;;;;5116006;28;20182;-46
2022/04/13 07:25:46;;;;;;;14.70;7.70;;;14.40;99.90;;;;;;5115398;28;20266;-45
2022/04/13 07:28:13;;;;;;;21.40;7.90;;;14.50;99.90;;;;;;5116111;28;20189;-46
2022/04/13 07:30:39;;;;;;;19.23;7.47;;;14.70;99.90;;;;;;5115847;28;20256;-46
2022/04/13 07:33:05;;;;;;;14.03;7.30;;;14.90;99.90;;;;;;5116183;28;20181;-47
2022/04/13 07:35:32;;;;;;;16.53;8.23;;;15.10;99.90;;;;;;5116458;28;20186;-46
2022/04/13 07:37:57;;;;;;;13.10;6.60;;;15.30;99.90;;;;;;5117341;28;20710;-47
2022/04/13 07:40:23;;;;;;;13.17;7.07;;;15.50;99.90;;;;;;5116974;28;20267;-45
2022/04/13 07:42:49;;;;;;;16.77;6.10;;;15.60;99.90;;;;;;5116680;28;20643;-47
2022/04/13 07:45:15;;;;;;;15.17;6.87;;;15.80;99.90;;;;;;5117754;28;20220;-45
2022/04/13 07:47:41;;;;;;;15.60;6.80;;;16.00;99.90;;;;;;5118960;28;20546;-45
2022/04/13 07:50:09;;;;;;;11.33;6.13;;;16.10;99.90;;;;;;5119175;28;20189;-46
2022/04/13 07:52:35;;;;;;;14.50;5.80;;;16.20;99.90;;;;;;5118550;28;20199;-46
2022/04/13 07:55:01;;;;;;;13.43;6.30;;;16.30;99.90;;;;;;5115937;28;20182;-47
2022/04/13 07:57:27;;;;;;;18.20;6.73;;;16.50;99.90;;;;;;5117482;28;20327;-46
2022/04/13 07:59:52;;;;;;;13.93;6.13;;;16.70;99.90;;;;;;5116386;28;20556;-45
2022/04/13 08:02:22;;;;;;;12.33;6.07;;;16.80;99.90;;;;;;5115148;28;20202;-43
2022/04/13 08:04:48;;;;;;;12.63;6.70;;;16.80;99.90;;;;;;5114666;28;20565;-45
2022/04/13 08:07:14;;;;;;;11.53;5.70;;;17.00;99.90;;;;;;5114344;28;20655;-41
2022/04/13 08:09:41;;;;;;;10.67;5.27;;;17.20;99.90;;;;;;5113859;28;20185;-43
2022/04/13 08:12:09;;;;;;;9.47;5.57;;;17.20;99.90;;;;;;5113747;28;20170;-41
2022/04/13 08:14:36;;;;;;;11.00;5.10;;;17.20;99.90;;;;;;5113927;28;20174;-42
2022/04/13 08:17:05;;;;;;;10.27;5.10;;;17.20;99.90;;;;;;5117677;28;20201;-40
2022/04/13 08:19:32;;;;;;;11.77;5.30;;;17.30;99.90;;;;;;5116746;28;20209;-42
2022/04/13 08:22:00;;;;;;;9.57;4.73;;;17.30;99.90;;;;;;5118061;28;20182;-40
2022/04/13 08:24:28;;;;;;;10.83;5.27;;;17.30;99.90;;;;;;5117601;28;20229;-41
2022/04/13 08:27:01;;;;;;;10.73;4.70;;;17.40;99.90;;;;;;5117904;27;20221;-41
2022/04/13 08:29:29;;;;;;;12.93;4.90;;;17.50;99.90;;;;;;5118377;28;20158;-42
2022/04/13 08:31:58;;;;;;;7.27;4.10;;;17.50;99.90;;;;;;5117849;28;20579;-39
2022/04/13 08:34:29;;;;;;;11.80;5.07;;;17.60;99.90;;;;;;5117568;28;20601;-41
2022/04/13 08:37:00;;;;;;;12.00;4.90;;;17.70;99.90;;;;;;5116127;28;20356;-41
2022/04/13 08:39:53;;;;;;;10.87;4.33;;;17.80;99.90;;;;;;5116397;28;20592;-42
2022/04/13 08:42:37;;;;;;;9.43;3.43;;;18.00;99.90;;;;;;5117697;28;20216;-41
2022/04/13 08:48:24;;;;;;;10.27;3.23;;;18.00;99.90;;;;;;5035032;28;20180;-39
2022/04/13 08:50:59;;;;;;;8.80;3.53;;;17.90;99.90;;;;;;5115167;28;20280;-40
2022/04/13 08:53:32;;;;;;;10.83;3.40;;;17.80;99.90;;;;;;5117147;28;20164;-41
2022/04/13 08:56:03;;;;;;;11.03;3.33;;;17.80;99.90;;;;;;5117083;28;20194;-41
2022/04/13 08:58:47;;;;;;;8.23;3.30;;;17.90;99.90;;;;;;5117092;28;20242;-42
2022/04/13 09:01:28;;;;;;;9.50;3.57;;;17.90;99.90;;;;;;5117048;28;20186;-41
2022/04/13 09:04:02;;;;;;;10.63;3.97;;;17.90;99.90;;;;;;5117488;28;20166;-41
2022/04/13 09:06:40;;;;;;;12.20;3.63;;;17.70;99.90;;;;;;5116648;28;20201;-41
2022/04/13 09:13:47;;;;;;;9.40;4.37;;;17.70;99.90;;;;;;5116902;28;20166;-42
2022/04/13 09:20:22;;;;;;;9.20;4.07;;;18.00;99.90;;;;;;5116825;28;20579;-41
2022/04/13 09:22:58;;;;;;;9.13;3.57;;;18.00;99.90;;;;;;5114855;28;20205;-41
2022/04/13 09:25:42;;;;;;;11.30;3.80;;;18.20;99.90;;;;;;5116167;28;20193;-43
2022/04/13 09:28:24;;;;;;;13.50;3.80;;;18.30;99.90;;;;;;5115042;28;20178;-42
2022/04/13 09:31:00;;;;;;;11.97;3.97;;;18.60;99.90;;;;;;5116583;27;20658;-43
2022/04/13 09:33:44;;;;;;;11.60;3.83;;;18.70;99.90;;;;;;5116479;28;20151;-41
2022/04/13 09:36:16;;;;;;;6.40;3.43;;;18.80;99.90;;;;;;5114320;28;20197;-41
2022/04/13 09:39:09;;;;;;;10.03;4.53;;;18.90;99.90;;;;;;5115841;28;20180;-41
2022/04/13 09:42:13;;;;;;;10.60;4.00;;;19.00;99.90;;;;;;5100850;28;20603;-42
2022/04/13 09:45:44;;;;;;;11.27;4.03;;;19.10;99.90;;;;;;5115533;28;20576;-41
2022/04/13 09:48:57;;;;;;;9.97;4.07;;;19.20;99.90;;;;;;5112988;28;20187;-39
2022/04/13 10:08:44;;;;;;;6.37;3.23;;;20.80;99.90;;;;;;5115090;28;20592;-42
2022/04/13 10:11:18;;;;;;;6.53;3.83;;;21.10;99.90;;;;;;5114878;28;20162;-42
2022/04/13 10:14:04;;;;;;;7.87;4.00;;;21.20;99.90;;;;;;5115481;28;20162;-41
2022/04/13 10:16:39;;;;;;;7.97;4.13;;;21.30;99.90;;;;;;5114538;28;20285;-42
2022/04/13 10:19:35;;;;;;;7.97;3.73;;;21.50;99.90;;;;;;5115896;28;20189;-42
2022/04/13 10:22:06;;;;;;;9.93;3.60;;;21.70;99.90;;;;;;5084917;28;20170;-42
2022/04/13 10:24:43;;;;;;;11.70;3.73;;;21.90;99.90;;;;;;5114272;28;20190;-42
2022/04/13 10:27:16;;;;;;;7.03;3.67;;;22.00;99.90;;;;;;5114434;28;20189;-44
2022/04/13 10:29:48;;;;;;;9.07;3.87;;;22.20;99.90;;;;;;5115303;28;20159;-42
2022/04/13 10:32:24;;;;;;;8.17;3.80;;;22.30;99.90;;;;;;5115565;28;20155;-40
2022/04/13 10:34:56;;;;;;;9.90;3.70;;;22.30;99.90;;;;;;5097807;28;20638;-40
2022/04/13 10:37:30;;;;;;;9.07;3.63;;;22.30;99.90;;;;;;5115173;28;20198;-42
2022/04/13 10:39:59;;;;;;;10.23;3.90;;;22.20;99.90;;;;;;5114368;28;20527;-42
2022/04/13 10:42:30;;;;;;;7.77;3.50;;;22.30;99.90;;;;;;5115077;28;20541;-42
2022/04/13 10:45:04;;;;;;;8.33;3.17;;;22.30;99.90;;;;;;5114935;28;20210;-43
2022/04/13 10:47:41;;;;;;;6.00;3.43;;;22.40;99.90;;;;;;5115191;28;20190;-42
2022/04/13 10:50:10;;;;;;;8.63;3.80;;;22.40;99.90;;;;;;5114890;28;20154;-41
2022/04/13 10:52:55;;;;;;;8.53;3.70;;;22.40;99.90;;;;;;5115489;27;20170;-42
2022/04/13 10:55:23;;;;;;;9.47;4.00;;;22.20;99.90;;;;;;5114869;28;20150;-43
2022/04/13 10:58:20;;;;;;;6.80;4.07;;;22.20;99.90;;;;;;5114594;28;20743;-44
2022/04/13 11:00:49;;;;;;;6.97;4.23;;;22.30;99.90;;;;;;5081629;28;20209;-43
2022/04/13 11:03:16;;;;;;;7.87;4.23;;;22.50;99.90;;;;;;5113301;28;20186;-42
2022/04/13 11:05:42;;;;;;;6.00;3.70;;;22.60;99.90;;;;;;5114350;28;20190;-42
2022/04/13 11:08:37;;;;;;;8.53;3.60;;;22.60;99.90;;;;;;5115148;28;20176;-43
2022/04/13 11:11:04;;;;;;;7.10;3.50;;;22.60;99.90;;;;;;5115168;28;20169;-42
2022/04/13 11:13:32;;;;;;;5.63;3.40;;;22.50;99.90;;;;;;5113140;28;20308;-41
2022/04/13 11:16:31;;;;;;;8.43;3.00;;;22.40;99.90;;;;;;5112953;28;20327;-42
2022/04/13 11:19:05;;;;;;;6.23;3.00;;;22.40;99.90;;;;;;5114296;28;20651;-41
2022/04/13 11:21:34;;;;;;;11.03;2.90;;;22.30;99.90;;;;;;5114151;28;20637;-41
2022/04/13 11:24:00;;;;;;;13.03;2.93;;;22.40;99.90;;;;;;5114118;28;20178;-42
2022/04/13 11:26:35;;;;;;;7.47;2.57;;;22.60;99.90;;;;;;5114323;28;20196;-43
2022/04/13 11:29:18;;;;;;;3.87;2.30;;;22.70;99.90;;;;;;5114138;28;20544;-45
2022/04/13 11:32:01;;;;;;;9.50;2.90;;;22.90;99.90;;;;;;5114616;28;20173;-41
2022/04/13 11:34:57;;;;;;;5.57;2.60;;;23.10;99.90;;;;;;5112760;28;20192;-42
2022/04/13 11:37:42;;;;;;;5.60;2.93;;;23.20;99.90;;;;;;5091950;28;20202;-42
2022/04/13 11:40:11;;;;;;;6.33;3.20;;;23.20;99.90;;;;;;5114306;28;20523;-43
2022/04/13 11:42:39;;;;;;;7.80;2.67;;;23.10;99.90;;;;;;5114274;28;20182;-43
2022/04/13 11:45:06;;;;;;;7.50;3.50;;;23.10;99.90;;;;;;5112454;28;20311;-41
2022/04/13 11:47:53;;;;;;;7.30;3.30;;;23.00;99.90;;;;;;5112581;28;20194;-43
2022/04/13 11:50:21;;;;;;;7.90;3.20;;;23.10;99.90;;;;;;5114018;28;20623;-42
2022/04/13 11:53:09;;;;;;;6.03;4.20;;;23.10;99.90;;;;;;5112547;28;20185;-42
2022/04/13 11:55:40;;;;;;;10.57;4.40;;;23.10;99.90;;;;;;5112387;28;20647;-44
2022/04/13 11:58:09;;;;;;;7.30;4.07;;;23.00;99.90;;;;;;5114235;28;20178;-44
2022/04/13 12:00:57;;;;;;;7.57;3.80;;;23.00;99.90;;;;;;5113664;28;20185;-43
2022/04/13 12:03:38;;;;;;;7.43;3.93;;;22.80;99.90;;;;;;5113969;28;20253;-41
2022/04/13 12:06:07;;;;;;;7.83;3.70;;;22.80;99.90;;;;;;5113830;28;20237;-42
2022/04/13 12:08:36;;;;;;;7.53;4.57;;;22.80;99.90;;;;;;5112405;28;20254;-42
2022/04/13 12:11:26;;;;;;;7.77;4.10;;;22.70;99.90;;;;;;5113905;28;20525;-43
2022/04/13 12:13:57;;;;;;;9.90;4.70;;;22.60;99.90;;;;;;5099515;28;20190;-42
2022/04/13 12:16:29;;;;;;;7.83;4.50;;;22.50;99.90;;;;;;5113821;28;20678;-40
2022/04/13 12:19:04;;;;;;;9.47;4.63;;;22.40;99.90;;;;;;5112322;28;20171;-44
2022/04/13 12:21:31;;;;;;;8.47;4.83;;;22.20;99.90;;;;;;5113847;28;20189;-42
2022/04/13 12:23:57;;;;;;;11.03;4.67;;;22.20;99.90;;;;;;5113527;28;20716;-42
2022/04/13 12:26:42;;;;;;;7.93;5.13;;;22.10;99.90;;;;;;5113467;28;20224;-43
2022/04/13 12:29:14;;;;;;;9.80;4.80;;;22.00;99.90;;;;;;5113839;28;20222;-42
2022/04/13 12:31:49;;;;;;;11.13;5.03;;;21.90;99.90;;;;;;5112195;28;20194;-43
2022/04/13 12:34:16;;;;;;;12.20;4.87;;;21.60;99.90;;;;;;5113735;28;20186;-44
2022/04/13 12:36:41;;;;;;;8.10;4.73;;;21.50;99.90;;;;;;5113551;28;20255;-44
2022/04/13 12:39:12;;;;;;;7.87;4.50;;;21.30;99.90;;;;;;5113758;28;20650;-43
2022/04/13 12:41:38;;;;;;;11.37;4.93;;;21.20;99.90;;;;;;5112262;28;20174;-43
2022/04/13 12:44:04;;;;;;;9.23;4.60;;;21.20;99.90;;;;;;5113561;28;20198;-43
2022/04/13 12:46:31;;;;;;;8.20;4.30;;;21.00;99.90;;;;;;5114212;28;20198;-41
2022/04/13 12:49:01;;;;;;;8.43;4.90;;;20.90;99.90;;;;;;5113348;28;20170;-42
2022/04/13 12:51:37;;;;;;;7.90;4.13;;;20.80;99.90;;;;;;5113311;28;20180;-44
2022/04/13 12:54:08;;;;;;;8.37;4.67;;;21.00;99.90;;;;;;5113249;28;20273;-41
2022/04/13 12:56:39;;;;;;;8.10;4.50;;;21.00;99.90;;;;;;5113144;28;20284;-41
2022/04/13 12:59:05;;;;;;;8.73;4.20;;;21.20;99.90;;;;;;5114056;28;20235;-42
2022/04/13 13:01:35;;;;;;;6.77;4.13;;;21.30;99.90;;;;;;5113668;28;20279;-43
2022/04/13 13:04:06;;;;;;;13.70;5.00;;;21.50;99.90;;;;;;5116795;28;20697;-42
2022/04/13 13:06:37;;;;;;;10.20;5.03;;;21.40;99.90;;;;;;5116795;28;20198;-42
2022/04/13 13:09:07;;;;;;;12.07;5.03;;;21.40;99.90;;;;;;5116912;28;20689;-40
2022/04/13 13:11:37;;;;;;;8.50;5.00;;;21.40;99.90;;;;;;5117089;28;20253;-43
2022/04/13 13:14:08;;;;;;;9.50;4.73;;;21.50;99.90;;;;;;5115439;28;20175;-42
2022/04/13 13:16:42;;;;;;;10.30;5.47;;;21.60;99.90;;;;;;5116929;28;20193;-42
2022/04/13 13:19:16;;;;;;;8.13;5.63;;;21.60;99.90;;;;;;5116943;28;20162;-42
2022/04/13 13:22:17;;;;;;;9.63;6.20;;;21.50;99.90;;;;;;5116815;27;20182;-42
2022/04/13 13:25:05;;;;;;;13.63;6.47;;;21.40;99.90;;;;;;5083394;28;20218;-42